Time;durP1;ratioP1;P1;durP2;ratioP2;P2;SDS_P1;SDS_P2;PMS_P1;PMS_P2;Temp;Humidity;BMP_temperature;BMP_pressure;BME280_temperature;BME280_humidity;BME280_pressure;Samples;Min_cycle;Max_cycle;Signal;HPM_P1;HPM_P2
2022/03/05 11:42:42;;;;;;;8.50;1.98;;;11.80;99.90;;;;;;4973361;28;20042;-93
2022/03/05 11:45:33;;;;;;;3.25;2.30;;;12.10;99.90;;;;;;4969560;28;20114;-94
2022/03/05 11:48:45;;;;;;;4.28;1.58;;;12.20;99.90;;;;;;5001070;28;20030;-93
2022/03/05 11:51:17;;;;;;;7.80;2.03;;;12.20;99.90;;;;;;4998309;28;20074;-86
2022/03/05 11:54:17;;;;;;;9.57;2.88;;;12.30;99.90;;;;;;5135758;23;20054;-93
2022/03/05 11:57:14;;;;;;;14.13;1.52;;;12.20;99.90;;;;;;4944563;29;20121;-93
2022/03/05 11:59:46;;;;;;;5.80;2.03;;;12.30;99.90;;;;;;4922173;29;20436;-92
2022/03/05 12:02:45;;;;;;;4.60;1.40;;;12.50;99.90;;;;;;4923545;29;20039;-88
2022/03/05 12:05:40;;;;;;;7.13;1.42;;;12.60;99.90;;;;;;4937640;29;20023;-91
2022/03/05 12:08:30;;;;;;;5.75;1.10;;;12.70;99.90;;;;;;4921452;29;20039;-90
2022/03/05 12:11:17;;;;;;;3.80;1.23;;;12.70;99.90;;;;;;4903180;29;20079;-88
2022/03/05 12:13:55;;;;;;;3.25;0.88;;;12.80;99.90;;;;;;4915530;29;20044;-88
2022/03/05 12:16:35;;;;;;;1.60;0.80;;;12.60;99.90;;;;;;4924417;29;20067;-93
2022/03/05 12:21:54;;;;;;;6.15;1.20;;;12.30;99.90;;;;;;5005737;28;20062;-89
2022/03/05 12:24:30;;;;;;;3.47;1.35;;;12.40;99.90;;;;;;4964622;28;20041;-91
2022/03/05 12:27:01;;;;;;;2.45;1.60;;;12.40;99.90;;;;;;4966986;28;20483;-93
2022/03/05 12:29:32;;;;;;;3.92;1.92;;;12.50;99.90;;;;;;4961793;28;20034;-89
2022/03/05 12:34:37;;;;;;;12.05;4.43;;;12.70;99.90;;;;;;5028831;23;20070;-91
2022/03/05 12:37:09;;;;;;;5.47;2.42;;;13.00;99.90;;;;;;4999028;28;20033;-90
2022/03/05 12:39:59;;;;;;;5.03;1.90;;;13.30;99.90;;;;;;5011284;23;20034;-91
2022/03/05 12:42:50;;;;;;;6.93;2.83;;;13.40;99.90;;;;;;4886103;29;20037;-90
2022/03/05 12:45:38;;;;;;;2.45;1.58;;;13.40;99.90;;;;;;4888077;29;20135;-91
2022/03/05 12:48:17;;;;;;;4.50;1.77;;;13.40;99.90;;;;;;4870689;29;20127;-94
2022/03/05 12:50:46;;;;;;;8.32;1.95;;;13.40;99.90;;;;;;4885147;29;20032;-91
2022/03/05 12:53:24;;;;;;;5.95;2.83;;;13.30;99.90;;;;;;4882717;29;20075;-88
2022/03/05 12:55:56;;;;;;;5.95;2.53;;;13.20;99.90;;;;;;4882421;29;20028;-90
2022/03/05 12:58:54;;;;;;;3.42;2.08;;;13.10;99.90;;;;;;4883413;29;20028;-93
2022/03/05 13:06:50;;;;;;;6.75;2.63;;;13.00;99.90;;;;;;5522983;23;20053;-94
2022/03/05 13:09:19;;;;;;;7.25;3.53;;;12.90;99.90;;;;;;4967454;23;20046;-93
2022/03/05 13:11:49;;;;;;;7.13;4.10;;;13.00;99.90;;;;;;5047015;23;20487;-93
2022/03/05 13:14:20;;;;;;;13.27;4.25;;;13.10;99.90;;;;;;4986297;23;20051;-91
2022/03/05 13:16:57;;;;;;;8.23;4.07;;;13.10;99.90;;;;;;4964234;28;20535;-92
2022/03/05 13:34:26;;;;;;;7.45;3.55;;;13.20;99.90;;;;;;5309797;23;20054;-93
2022/03/05 13:47:18;;;;;;;6.22;3.17;;;13.00;99.90;;;;;;5045078;23;20062;-93
2022/03/05 13:56:50;;;;;;;9.25;2.85;;;12.80;99.90;;;;;;5249696;23;20089;-89
2022/03/05 13:59:20;;;;;;;9.10;3.10;;;12.80;99.90;;;;;;4968136;28;20030;-90
2022/03/05 14:01:55;;;;;;;1.40;1.05;;;12.70;99.90;;;;;;4968278;28;20029;-92
2022/03/05 14:04:22;;;;;;;6.88;1.73;;;12.40;99.90;;;;;;4969128;28;20058;-92
2022/03/05 14:06:59;;;;;;;5.05;2.25;;;11.60;99.90;;;;;;4967696;28;20476;-92
2022/03/05 14:09:47;;;;;;;6.28;2.47;;;11.00;99.90;;;;;;4984878;28;20038;-93
2022/03/05 14:12:19;;;;;;;5.13;1.50;;;10.40;99.90;;;;;;4969536;28;20038;-91
2022/03/05 14:15:08;;;;;;;3.80;2.17;;;10.40;99.90;;;;;;4986693;28;20077;-92
2022/03/05 14:17:58;;;;;;;3.72;2.05;;;10.40;99.90;;;;;;4968966;28;20432;-89
2022/03/05 14:20:28;;;;;;;7.00;3.65;;;10.40;99.90;;;;;;4967904;28;20031;-91
2022/03/05 14:23:06;;;;;;;7.55;3.67;;;10.30;99.90;;;;;;4967869;28;20022;-92
2022/03/05 14:25:49;;;;;;;12.07;6.95;;;10.50;99.90;;;;;;4967354;28;20446;-90
2022/03/05 14:30:46;;;;;;;3.20;1.83;;;10.70;99.90;;;;;;4961305;28;20052;-91
2022/03/05 14:33:18;;;;;;;3.47;2.08;;;10.50;99.90;;;;;;4927016;28;20074;-92
2022/03/05 14:35:49;;;;;;;4.82;2.22;;;10.50;99.90;;;;;;4946483;29;20031;-90
2022/03/05 14:38:16;;;;;;;3.45;1.80;;;10.60;99.90;;;;;;4954529;28;20027;-92
2022/03/05 14:40:44;;;;;;;3.72;1.52;;;10.70;99.90;;;;;;4947965;28;20019;-90
2022/03/05 14:43:12;;;;;;;5.68;2.67;;;10.60;99.90;;;;;;4964308;28;20038;-91
2022/03/05 14:45:47;;;;;;;2.42;1.98;;;10.60;99.90;;;;;;4962020;28;20046;-93
2022/03/05 14:48:17;;;;;;;3.97;2.35;;;10.60;99.90;;;;;;4960354;28;20093;-90
2022/03/05 14:50:44;;;;;;;5.57;3.42;;;10.60;99.90;;;;;;4977013;28;20023;-90
2022/03/05 14:53:11;;;;;;;4.15;1.95;;;10.70;99.90;;;;;;4961145;28;20134;-92
2022/03/05 14:55:37;;;;;;;5.10;2.55;;;10.60;99.90;;;;;;4961212;28;20030;-93
2022/03/05 14:58:07;;;;;;;4.00;2.42;;;10.60;99.90;;;;;;4960796;28;20066;-91
2022/03/05 15:00:35;;;;;;;8.43;3.75;;;10.70;99.90;;;;;;4944974;28;20038;-93
2022/03/05 15:03:03;;;;;;;10.13;4.97;;;10.80;99.90;;;;;;4960699;28;20033;-93
2022/03/05 15:05:39;;;;;;;15.13;6.10;;;10.90;99.90;;;;;;4945463;28;20031;-94
2022/03/05 15:08:06;;;;;;;19.58;7.53;;;10.80;99.90;;;;;;4947108;28;20023;-91
2022/03/05 15:10:36;;;;;;;14.13;5.22;;;10.70;99.90;;;;;;4960560;28;20030;-93
2022/03/05 15:13:04;;;;;;;7.85;4.63;;;10.80;99.90;;;;;;4960468;28;20046;-91
2022/03/05 15:15:34;;;;;;;16.27;5.50;;;10.80;99.90;;;;;;4946236;28;20031;-94
2022/03/05 15:18:07;;;;;;;12.45;4.65;;;10.70;99.90;;;;;;4964205;28;20492;-91
2022/03/05 15:20:35;;;;;;;7.80;5.22;;;10.70;99.90;;;;;;5040936;23;20492;-89
2022/03/05 15:23:09;;;;;;;10.25;4.50;;;10.60;99.90;;;;;;4965790;28;20117;-92
2022/03/05 15:25:43;;;;;;;8.63;3.97;;;10.80;99.90;;;;;;4967354;28;20097;-93
2022/03/05 15:28:24;;;;;;;3.38;2.10;;;10.80;99.90;;;;;;5161791;23;20113;-96
2022/03/05 15:31:02;;;;;;;6.18;3.10;;;10.90;99.90;;;;;;5209004;23;20517;-91
2022/03/05 15:33:31;;;;;;;12.40;4.25;;;10.90;99.90;;;;;;4983240;28;20026;-91
2022/03/05 15:35:58;;;;;;;9.80;3.22;;;10.80;99.90;;;;;;4984011;28;20034;-91
2022/03/05 15:38:46;;;;;;;9.57;3.63;;;10.80;99.90;;;;;;4972268;28;20018;-91
2022/03/05 15:41:37;;;;;;;6.65;3.15;;;10.80;99.90;;;;;;4992259;23;20050;-94
2022/03/05 15:47:31;;;;;;;7.47;4.03;;;11.00;99.90;;;;;;5041377;23;20507;-90
2022/03/05 15:49:57;;;;;;;9.50;3.40;;;11.10;99.90;;;;;;4982890;28;20065;-93
2022/03/05 15:52:26;;;;;;;6.85;4.07;;;11.10;99.90;;;;;;4986349;28;20034;-93
2022/03/05 15:55:09;;;;;;;7.40;3.53;;;11.10;99.90;;;;;;4985678;28;20033;-93
2022/03/05 15:58:03;;;;;;;9.45;3.53;;;11.00;99.90;;;;;;5012999;23;20077;-93
2022/03/05 16:03:38;;;;;;;6.20;3.65;;;11.10;99.90;;;;;;5307751;23;20057;-93
2022/03/05 16:06:06;;;;;;;7.57;4.03;;;11.00;99.90;;;;;;4990959;28;20080;-89
2022/03/05 16:08:33;;;;;;;8.88;3.97;;;11.10;99.90;;;;;;4978823;28;20027;-91
2022/03/05 16:11:00;;;;;;;6.40;3.67;;;11.00;99.90;;;;;;4962565;28;20033;-92
2022/03/05 16:13:27;;;;;;;15.88;4.82;;;11.00;99.90;;;;;;4962999;28;20038;-92
2022/03/05 16:15:54;;;;;;;11.25;4.07;;;11.00;99.90;;;;;;4962872;28;20030;-95
2022/03/05 16:18:21;;;;;;;10.75;4.00;;;11.00;99.90;;;;;;4964813;28;20058;-93
2022/03/05 16:20:47;;;;;;;11.73;5.00;;;10.90;99.90;;;;;;4962798;28;20056;-90
2022/03/05 16:23:20;;;;;;;11.57;5.03;;;10.80;99.90;;;;;;4962470;28;20038;-92
2022/03/05 16:25:50;;;;;;;19.92;6.82;;;10.70;99.90;;;;;;4964149;28;20054;-91
2022/03/05 16:28:17;;;;;;;23.73;6.00;;;10.70;99.90;;;;;;4962369;28;20496;-92
2022/03/05 16:30:44;;;;;;;19.67;7.35;;;10.60;99.90;;;;;;4963161;28;20018;-93
2022/03/05 16:33:10;;;;;;;22.60;8.75;;;10.60;99.90;;;;;;4962856;28;20034;-94
2022/03/05 16:35:37;;;;;;;19.70;7.72;;;10.60;99.90;;;;;;4964938;28;20057;-90
2022/03/05 16:38:12;;;;;;;12.57;5.53;;;10.60;99.90;;;;;;4966223;28;20121;-91
2022/03/05 16:40:44;;;;;;;12.07;5.90;;;10.60;99.90;;;;;;4964292;28;20034;-92
2022/03/05 16:43:40;;;;;;;14.63;6.28;;;10.60;99.90;;;;;;4962294;28;20035;-94
2022/03/05 16:46:32;;;;;;;13.32;6.57;;;10.60;99.90;;;;;;4955774;28;20046;-94
2022/03/05 16:49:48;;;;;;;14.75;6.60;;;10.70;99.90;;;;;;5042844;23;20078;-91
2022/03/05 16:55:58;;;;;;;26.33;8.35;;;10.60;99.90;;;;;;4932183;29;20062;-92
2022/03/05 16:58:24;;;;;;;21.38;9.63;;;10.60;99.90;;;;;;4947557;29;20109;-94
2022/03/05 17:00:51;;;;;;;19.40;8.60;;;10.60;99.90;;;;;;4935951;29;20063;-92
2022/03/05 17:03:18;;;;;;;15.85;7.72;;;10.60;99.90;;;;;;4935616;29;20023;-92
2022/03/05 17:05:44;;;;;;;19.52;7.70;;;10.60;99.90;;;;;;4935341;29;20047;-93
2022/03/05 17:08:13;;;;;;;13.85;6.90;;;10.50;99.90;;;;;;4934882;29;20024;-93
2022/03/05 17:10:58;;;;;;;15.70;7.13;;;10.50;99.90;;;;;;4937755;29;20043;-93
2022/03/05 17:16:12;;;;;;;12.05;7.05;;;10.40;99.90;;;;;;4982874;28;20488;-93
2022/03/05 17:18:42;;;;;;;22.67;9.25;;;10.30;99.90;;;;;;4942209;28;20507;-92
2022/03/05 17:21:22;;;;;;;25.67;9.98;;;10.30;99.90;;;;;;4925742;29;20032;-93
2022/03/05 17:24:21;;;;;;;23.60;8.88;;;10.20;99.90;;;;;;4942505;28;20035;-94
2022/03/05 17:29:54;;;;;;;20.92;8.65;;;10.10;99.90;;;;;;4970024;28;20142;-90
2022/03/05 17:32:21;;;;;;;23.70;8.52;;;10.10;99.90;;;;;;4942204;28;20043;-89
2022/03/05 17:35:01;;;;;;;;;;;;;;;;;;;;;
2022/03/05 17:41:35;;;;;;;18.23;7.47;;;9.90;99.90;;;;;;4922236;23;20058;-92
2022/03/05 17:44:01;;;;;;;14.07;7.28;;;9.90;99.90;;;;;;4942676;28;20030;-92
2022/03/05 17:46:28;;;;;;;24.08;10.73;;;9.80;99.90;;;;;;4951208;28;20076;-91
2022/03/05 17:48:54;;;;;;;28.75;12.00;;;9.80;99.90;;;;;;4961729;28;20035;-91
2022/03/05 17:51:23;;;;;;;25.15;11.70;;;9.80;99.90;;;;;;4926307;29;20126;-92
2022/03/05 17:53:57;;;;;;;20.25;9.48;;;9.70;99.90;;;;;;4961426;28;20034;-93
2022/03/05 17:56:36;;;;;;;18.45;9.07;;;9.70;99.90;;;;;;4905904;29;20023;-93
2022/03/05 17:59:13;;;;;;;20.00;7.55;;;9.70;99.90;;;;;;4920652;29;20036;-93
2022/03/05 18:01:45;;;;;;;15.57;7.15;;;9.60;99.90;;;;;;4921071;29;20058;-92
2022/03/05 18:04:20;;;;;;;11.23;6.35;;;9.60;99.90;;;;;;4920660;29;20028;-92
2022/03/05 18:06:48;;;;;;;12.20;5.78;;;9.50;99.90;;;;;;4952558;28;20053;-90
2022/03/05 18:09:15;;;;;;;14.20;5.85;;;9.40;99.90;;;;;;4941749;28;20511;-89
2022/03/05 18:11:42;;;;;;;14.82;6.63;;;9.40;99.90;;;;;;4941843;28;20039;-92
2022/03/05 18:14:14;;;;;;;25.90;8.55;;;9.30;99.90;;;;;;4942547;28;20031;-93
2022/03/05 18:16:41;;;;;;;39.38;19.48;;;9.30;99.90;;;;;;4938990;28;20030;-90
2022/03/05 18:19:10;;;;;;;22.33;12.65;;;9.20;99.90;;;;;;4923932;29;20082;-93
2022/03/05 18:21:46;;;;;;;16.95;8.65;;;9.20;99.90;;;;;;4944770;28;20031;-94
2022/03/05 18:24:13;;;;;;;16.40;7.82;;;9.10;99.90;;;;;;4946569;28;20085;-91
2022/03/05 18:26:41;;;;;;;15.55;7.75;;;9.00;99.90;;;;;;4946971;28;20030;-91
2022/03/05 18:29:08;;;;;;;17.88;9.38;;;9.00;99.90;;;;;;4942802;28;20058;-93
2022/03/05 18:31:34;;;;;;;16.08;7.38;;;8.90;99.90;;;;;;4945299;28;20031;-88
2022/03/05 18:34:03;;;;;;;12.90;6.47;;;8.90;99.90;;;;;;4945220;28;20064;-88
2022/03/05 18:36:40;;;;;;;10.00;6.10;;;8.80;99.90;;;;;;4934752;29;20477;-89
2022/03/05 18:39:07;;;;;;;12.55;5.55;;;8.80;99.90;;;;;;4938827;29;20028;-91
2022/03/05 18:41:34;;;;;;;13.25;6.50;;;8.70;99.90;;;;;;4929729;29;20055;-91
2022/03/05 18:44:02;;;;;;;14.95;6.13;;;8.60;99.90;;;;;;4927168;29;20091;-89
2022/03/05 18:46:29;;;;;;;9.00;4.60;;;8.60;99.90;;;;;;4957045;28;20026;-92
2022/03/05 18:48:58;;;;;;;16.42;7.25;;;8.60;99.90;;;;;;4942037;28;20122;-90
2022/03/05 18:51:26;;;;;;;16.50;7.82;;;8.50;99.90;;;;;;4930369;28;20034;-89
2022/03/05 18:53:52;;;;;;;14.77;7.50;;;8.50;99.90;;;;;;4945000;28;20054;-88
2022/03/05 18:56:19;;;;;;;15.43;7.28;;;8.50;99.90;;;;;;4933385;29;20031;-90
2022/03/05 18:58:45;;;;;;;15.98;7.03;;;8.50;99.90;;;;;;4929854;28;20070;-91
2022/03/05 19:01:12;;;;;;;16.10;6.95;;;8.50;99.90;;;;;;4944680;28;20031;-90
2022/03/05 19:03:39;;;;;;;17.90;7.97;;;8.40;99.90;;;;;;4944648;28;20034;-91
2022/03/05 19:06:06;;;;;;;12.82;7.57;;;8.50;99.90;;;;;;4927199;29;20031;-88
2022/03/05 19:08:32;;;;;;;23.75;9.43;;;8.40;99.90;;;;;;4933192;28;20110;-89
2022/03/05 19:10:59;;;;;;;22.58;8.88;;;8.50;99.90;;;;;;4944505;28;20122;-91
2022/03/05 19:13:27;;;;;;;14.23;7.43;;;8.40;99.90;;;;;;4937770;29;20031;-93
2022/03/05 19:19:09;;;;;;;16.38;8.38;;;8.40;99.90;;;;;;5076006;23;20050;-92
2022/03/05 19:21:46;;;;;;;21.00;8.57;;;8.40;99.90;;;;;;4951627;28;20046;-91
2022/03/05 19:24:12;;;;;;;15.02;8.40;;;8.40;99.90;;;;;;4947166;28;20047;-92
2022/03/05 19:35:29;;;;;;;26.05;10.90;;;8.30;99.90;;;;;;5200036;23;20140;-93
2022/03/05 19:38:20;;;;;;;21.70;10.20;;;8.30;99.90;;;;;;4989818;28;20038;-95
2022/03/05 19:41:18;;;;;;;22.42;10.25;;;8.30;99.90;;;;;;5071387;23;20082;-93
2022/03/05 19:44:11;;;;;;;13.40;4.95;;;8.30;99.90;;;;;;4966512;28;20090;-94
2022/03/05 19:46:41;;;;;;;6.53;3.75;;;8.30;99.90;;;;;;4908145;29;20112;-90
2022/03/05 19:52:42;;;;;;;19.23;7.00;;;8.20;99.90;;;;;;4939604;29;20048;-92
2022/03/05 19:55:13;;;;;;;9.50;4.53;;;8.20;99.90;;;;;;4905239;29;20042;-93
2022/03/05 19:57:40;;;;;;;16.27;5.25;;;8.20;99.90;;;;;;5011890;23;20059;-89
2022/03/05 20:00:17;;;;;;;12.15;5.18;;;8.20;99.90;;;;;;4978239;28;20027;-93
2022/03/05 20:03:00;;;;;;;18.48;5.68;;;8.10;99.90;;;;;;4965278;28;20102;-94
2022/03/05 20:05:27;;;;;;;10.82;3.60;;;8.10;99.90;;;;;;4979919;28;20114;-92
2022/03/05 20:07:58;;;;;;;8.05;3.25;;;8.20;99.90;;;;;;4978924;28;20035;-94
2022/03/05 20:10:33;;;;;;;7.78;3.40;;;8.20;99.90;;;;;;4979719;28;20031;-93
2022/03/05 20:13:03;;;;;;;9.57;2.88;;;8.20;99.90;;;;;;4981512;28;20113;-94
2022/03/05 20:15:32;;;;;;;9.13;4.10;;;8.20;99.90;;;;;;4961956;28;20030;-94
2022/03/05 20:18:00;;;;;;;5.63;2.90;;;8.10;99.90;;;;;;4977952;28;20082;-94
2022/03/05 20:20:27;;;;;;;9.75;3.42;;;8.10;99.90;;;;;;4976018;28;20023;-88
2022/03/05 20:22:57;;;;;;;16.35;4.25;;;8.10;99.90;;;;;;4976037;28;20467;-91
2022/03/05 20:25:32;;;;;;;8.48;3.20;;;8.10;99.90;;;;;;4976593;28;20039;-89
2022/03/05 20:28:00;;;;;;;7.57;2.53;;;8.00;99.90;;;;;;4980922;28;20061;-93
2022/03/05 20:30:36;;;;;;;6.72;1.58;;;8.00;99.90;;;;;;4978994;28;20054;-90
2022/03/05 20:33:03;;;;;;;5.82;1.65;;;8.00;99.90;;;;;;4962213;28;20038;-90
2022/03/05 20:35:35;;;;;;;2.42;1.80;;;7.80;99.90;;;;;;4978113;28;20023;-95
2022/03/05 20:38:03;;;;;;;4.25;1.35;;;7.80;99.90;;;;;;4982465;28;20125;-91
2022/03/05 20:40:30;;;;;;;3.88;1.48;;;7.70;99.90;;;;;;4984820;28;20034;-92
2022/03/05 20:42:58;;;;;;;5.10;1.85;;;7.80;99.90;;;;;;4964738;28;20054;-89
2022/03/05 20:45:29;;;;;;;3.63;1.80;;;7.80;99.90;;;;;;4979668;28;20030;-92
2022/03/05 20:54:27;;;;;;;3.40;1.83;;;7.80;99.90;;;;;;5141128;23;20072;-95
2022/03/05 20:56:54;;;;;;;9.13;2.25;;;7.80;99.90;;;;;;4979010;23;20074;-93
2022/03/05 21:02:10;;;;;;;4.40;1.95;;;7.70;99.90;;;;;;5605740;23;20053;-94
2022/03/05 21:04:44;;;;;;;;;;;7.70;99.90;;;;;;5005175;28;20045;-93
2022/03/05 21:07:29;;;;;;;1.88;1.55;;;7.70;99.90;;;;;;4984309;23;20380;-93
2022/03/05 21:55:57;;;;;;;8.88;2.90;;;7.40;99.90;;;;;;5074883;23;20061;-93
2022/03/05 22:01:31;;;;;;;5.05;1.50;;;7.50;99.90;;;;;;6136170;23;20021;31
2022/03/05 22:03:59;;;;;;;4.90;1.70;;;7.50;99.90;;;;;;4944009;29;20040;-90
2022/03/05 22:06:27;;;;;;;10.55;2.08;;;7.50;99.90;;;;;;4915683;29;20035;-90
2022/03/05 22:08:55;;;;;;;2.38;1.60;;;7.50;99.90;;;;;;4929125;23;20040;-92
2022/03/05 22:11:22;;;;;;;6.63;1.75;;;7.50;99.90;;;;;;4975395;28;20050;-90
2022/03/05 22:13:49;;;;;;;7.60;1.42;;;7.50;99.90;;;;;;4975572;28;20034;-92
2022/03/05 22:16:18;;;;;;;6.47;1.48;;;7.50;99.90;;;;;;4959531;28;20027;-89
2022/03/05 22:18:45;;;;;;;5.57;1.58;;;7.50;99.90;;;;;;4975124;28;20406;-90
2022/03/05 22:21:12;;;;;;;2.38;0.93;;;7.50;99.90;;;;;;4972315;28;20547;-90
2022/03/05 22:23:39;;;;;;;1.75;1.10;;;7.60;99.90;;;;;;4987786;28;20539;-90
2022/03/05 22:26:06;;;;;;;3.45;1.25;;;7.60;99.90;;;;;;4988319;28;20038;-92
2022/03/05 22:28:40;;;;;;;3.38;1.67;;;7.60;99.90;;;;;;4988326;28;20051;-90
2022/03/05 22:31:07;;;;;;;1.10;0.85;;;7.60;99.90;;;;;;4988451;28;20034;-89
2022/03/05 22:33:34;;;;;;;3.58;1.30;;;7.60;99.90;;;;;;4988080;28;20037;-90
2022/03/05 22:36:02;;;;;;;7.32;1.63;;;7.70;99.90;;;;;;4982261;28;20027;-90
2022/03/05 22:38:29;;;;;;;7.43;1.42;;;7.70;99.90;;;;;;4977243;28;20031;-90
2022/03/05 22:40:56;;;;;;;3.30;1.48;;;7.70;99.90;;;;;;4977662;28;20042;-90
2022/03/05 22:43:23;;;;;;;6.65;1.02;;;7.80;99.90;;;;;;4957377;29;20031;-89
2022/03/05 22:45:50;;;;;;;5.10;1.83;;;7.80;99.90;;;;;;4957620;29;20460;-90
2022/03/05 22:48:17;;;;;;;3.00;1.70;;;7.80;99.90;;;;;;4957266;28;20027;-91
2022/03/05 22:50:44;;;;;;;1.67;1.40;;;7.80;99.90;;;;;;4969983;28;20037;-90
2022/03/05 22:53:11;;;;;;;9.85;1.27;;;7.80;99.90;;;;;;4959978;28;20038;-89
2022/03/05 22:55:37;;;;;;;2.40;0.90;;;7.90;99.90;;;;;;4957265;28;20400;-91
2022/03/05 22:58:06;;;;;;;5.38;2.05;;;7.90;99.90;;;;;;4957896;28;20496;-89
2022/03/05 23:00:33;;;;;;;4.70;1.80;;;7.90;99.90;;;;;;4940928;29;20032;-89
2022/03/05 23:05:45;;;;;;;8.40;2.53;;;8.00;99.90;;;;;;4940732;28;20034;-90
2022/03/05 23:11:02;;;;;;;5.72;1.67;;;8.10;99.90;;;;;;4931832;29;20102;-91
2022/03/05 23:13:29;;;;;;;11.30;2.17;;;8.10;99.90;;;;;;4924808;29;20058;-90
2022/03/05 23:15:56;;;;;;;3.22;1.45;;;8.10;99.90;;;;;;4915072;29;20027;-90
2022/03/05 23:18:24;;;;;;;12.05;2.33;;;8.10;99.90;;;;;;4941878;29;20032;-90
2022/03/05 23:20:50;;;;;;;4.82;1.85;;;8.10;99.90;;;;;;4940342;29;20101;-89
2022/03/05 23:23:17;;;;;;;4.18;2.10;;;8.10;99.90;;;;;;4941248;29;20035;-91
2022/03/05 23:25:44;;;;;;;4.68;1.77;;;8.20;99.90;;;;;;4938546;29;20023;-87
2022/03/05 23:28:14;;;;;;;3.65;2.03;;;8.20;99.90;;;;;;4927773;29;20028;-94
2022/03/05 23:30:47;;;;;;;5.82;2.72;;;8.20;99.90;;;;;;4942480;29;20465;-93
2022/03/05 23:33:22;;;;;;;5.07;2.13;;;8.20;99.90;;;;;;4941357;29;20078;-91
2022/03/05 23:35:49;;;;;;;6.88;2.42;;;8.10;99.90;;;;;;4926313;29;20031;-92
2022/03/05 23:38:15;;;;;;;6.55;4.05;;;8.20;99.90;;;;;;4922213;29;20136;-91
2022/03/05 23:40:42;;;;;;;7.68;2.78;;;8.10;99.90;;;;;;4921921;29;20034;-85
2022/03/05 23:43:08;;;;;;;8.63;2.92;;;8.10;99.90;;;;;;4921819;29;20067;-85
2022/03/05 23:45:35;;;;;;;4.32;2.30;;;8.20;99.90;;;;;;4921881;29;20023;-84
2022/03/05 23:48:02;;;;;;;8.80;2.75;;;8.20;99.90;;;;;;4922013;29;20044;-84
2022/03/05 23:50:32;;;;;;;4.13;2.13;;;8.20;99.90;;;;;;4906019;29;20027;-84
2022/03/05 23:52:58;;;;;;;6.53;2.38;;;8.10;99.90;;;;;;4921692;29;20481;-84
2022/03/05 23:55:25;;;;;;;9.57;2.25;;;8.10;99.90;;;;;;4921679;29;20392;-85
2022/03/05 23:57:52;;;;;;;6.25;1.58;;;8.20;99.90;;;;;;4937483;29;20405;-85
